Time;durP1;ratioP1;P1;durP2;ratioP2;P2;SDS_P1;SDS_P2;PMS_P1;PMS_P2;Temp;Humidity;BMP_temperature;BMP_pressure;BME280_temperature;BME280_humidity;BME280_pressure;Samples;Min_cycle;Max_cycle;Signal;HPM_P1;HPM_P2
2023/05/14 00:12:13;;;;;;;3.03;2.22;;;;;;;21.68;47.48;100745.91;41509486;28;20057;-79
2023/05/14 00:32:14;;;;;;;2.60;2.35;;;;;;;21.68;47.66;100745.91;41500353;28;20405;-80
2023/05/14 00:52:15;;;;;;;2.22;2.03;;;;;;;21.67;47.70;100738.13;41508698;28;20049;-80
2023/05/14 01:12:34;;;;;;;2.47;2.17;;;;;;;21.66;47.81;100720.63;41542262;28;20046;-84
2023/05/14 01:32:38;;;;;;;3.97;1.98;;;;;;;21.62;47.65;100688.38;41534775;28;20392;-80
2023/05/14 01:52:43;;;;;;;1.80;1.70;;;;;;;21.64;47.89;100675.94;41517118;28;20072;-79
2023/05/14 02:12:45;;;;;;;2.13;1.92;;;;;;;21.62;47.81;100634.81;41512203;28;20056;-80
2023/05/14 02:32:47;;;;;;;2.08;1.88;;;;;;;21.60;47.89;100624.41;41523802;28;20038;-81
2023/05/14 02:52:49;;;;;;;2.80;1.70;;;;;;;21.61;47.75;100630.53;41547063;28;20061;-82
2023/05/14 03:12:50;;;;;;;2.03;1.83;;;;;;;21.59;47.59;100617.44;41554214;28;20046;-82
2023/05/14 03:32:52;;;;;;;2.03;1.88;;;;;;;21.59;47.94;100630.63;41555195;28;20052;-82
2023/05/14 03:52:53;;;;;;;2.13;1.70;;;;;;;21.57;47.49;100629.91;41537349;28;20119;-82
2023/05/14 04:12:54;;;;;;;1.88;1.77;;;;;;;21.56;47.66;100618.53;41559474;28;20060;-81
2023/05/14 04:32:54;;;;;;;3.53;1.60;;;;;;;21.56;47.84;100601.84;41542659;28;20416;-81
2023/05/14 04:52:56;;;;;;;1.60;1.50;;;;;;;21.55;47.45;100598.34;41532662;28;20046;-81
2023/05/14 05:12:57;;;;;;;3.75;1.77;;;;;;;21.56;48.09;100586.03;41467128;28;20057;-79
2023/05/14 05:32:58;;;;;;;1.50;1.38;;;;;;;21.63;48.22;100570.63;41486123;28;20045;-79
2023/05/14 05:53:07;;;;;;;2.28;1.63;;;;;;;21.67;48.39;100577.34;41498822;28;20034;-77
2023/05/14 06:13:07;;;;;;;2.13;1.58;;;;;;;21.72;46.16;100578.66;41370479;28;20073;-77
2023/05/14 06:33:08;;;;;;;2.80;2.00;;;;;;;21.70;45.50;100593.78;41346565;28;20046;-76
2023/05/14 06:53:08;;;;;;;2.42;2.03;;;;;;;21.66;45.26;100579.13;41305394;28;20057;-76
2023/05/14 07:13:09;;;;;;;3.28;2.35;;;;;;;21.65;43.51;100556.38;41313599;28;20060;-79
2023/05/14 07:33:11;;;;;;;4.40;2.30;;;;;;;21.64;45.45;100544.19;41374581;28;20046;-79
2023/05/14 07:53:12;;;;;;;5.88;3.22;;;;;;;21.67;45.57;100533.38;41345822;28;20042;-80
2023/05/14 08:13:13;;;;;;;6.57;3.10;;;;;;;21.74;45.90;100505.59;41346729;28;20618;-76
2023/05/14 08:33:13;;;;;;;8.40;3.45;;;;;;;21.75;46.80;100483.56;41336791;28;20038;-78
2023/05/14 08:53:14;;;;;;;4.97;3.58;;;;;;;21.80;47.03;100446.31;41333786;28;20046;-78
2023/05/14 09:13:14;;;;;;;7.13;3.20;;;;;;;21.84;48.10;100450.34;41327408;28;20565;-81
2023/05/14 09:33:28;;;;;;;5.47;3.30;;;;;;;21.89;48.34;100442.91;41336250;28;20046;-81
2023/05/14 12:17:37;;;;;;;8.23;5.50;;;;;;;22.36;48.46;100259.81;44946526;23;20054;-77
2023/05/14 12:37:38;;;;;;;9.82;4.32;;;;;;;22.36;47.17;100233.44;39600928;29;20062;-80
2023/05/14 12:57:39;;;;;;;5.82;3.90;;;;;;;22.32;46.98;100222.31;39617885;29;20072;-78
2023/05/14 13:17:40;;;;;;;7.63;4.07;;;;;;;22.41;49.15;100189.09;39623538;29;20938;-79
2023/05/14 13:37:42;;;;;;;5.88;4.00;;;;;;;22.45;49.52;100156.19;39783740;29;20058;-79
2023/05/14 13:57:42;;;;;;;8.93;3.35;;;;;;;22.50;50.10;100126.75;39757420;29;20140;-80
2023/05/14 14:17:44;;;;;;;9.05;3.58;;;;;;;22.55;51.20;100109.53;39771237;29;20133;-84
2023/05/14 14:37:47;;;;;;;9.80;3.70;;;;;;;22.57;51.27;100109.44;39787119;29;20217;-79
2023/05/14 14:57:48;;;;;;;4.97;3.10;;;;;;;22.58;50.82;100095.25;39791042;29;20039;-85
2023/05/14 15:17:48;;;;;;;9.85;2.92;;;;;;;22.64;50.55;100063.06;39802847;29;20506;-84
2023/05/14 15:37:50;;;;;;;5.25;2.70;;;;;;;22.14;47.61;100042.78;39803240;29;20046;-82
2023/05/14 15:57:50;;;;;;;3.53;2.17;;;;;;;22.31;51.21;100014.06;39767137;29;20086;-81
2023/05/14 16:17:51;;;;;;;6.18;2.67;;;;;;;22.39;52.07;99979.97;39757671;29;20511;-78
2023/05/14 16:37:51;;;;;;;5.28;2.72;;;;;;;22.42;52.65;99984.13;39774019;29;20142;-79
2023/05/14 16:57:53;;;;;;;4.60;2.80;;;;;;;22.46;53.29;99951.22;39725536;29;20095;-79
2023/05/14 17:17:55;;;;;;;5.93;2.90;;;;;;;22.47;53.67;99932.63;39744896;29;20038;-79
2023/05/14 17:37:55;;;;;;;5.50;2.40;;;;;;;22.45;53.47;99916.09;39768203;29;20054;-79
2023/05/14 17:57:56;;;;;;;4.13;2.40;;;;;;;22.44;53.31;99879.31;39778074;29;20164;-79
2023/05/14 18:17:56;;;;;;;7.07;2.30;;;;;;;22.36;53.74;99850.94;39766141;29;20043;-80
2023/05/14 18:37:57;;;;;;;4.05;2.30;;;;;;;22.33;53.20;99870.53;39780376;29;20051;-79
2023/05/14 18:57:57;;;;;;;6.22;1.95;;;;;;;22.30;53.75;99873.47;39766020;29;20127;-79
2023/05/14 19:17:59;;;;;;;3.75;2.50;;;;;;;22.31;53.34;99863.72;39769694;29;20660;-78
2023/05/14 19:37:59;;;;;;;7.80;3.00;;;;;;;22.22;52.79;99847.75;39947226;29;20039;-78
2023/05/14 19:57:59;;;;;;;7.38;3.20;;;;;;;22.21;54.49;99843.44;39929459;29;20497;-80
2023/05/14 20:18:00;;;;;;;6.30;3.50;;;;;;;22.16;55.37;99821.13;39944645;29;20056;-78
2023/05/14 20:38:02;;;;;;;6.20;3.63;;;;;;;22.16;55.26;99803.47;39920821;29;20054;-78
2023/05/14 20:58:02;;;;;;;3.78;3.00;;;;;;;22.14;55.37;99783.50;39949076;29;20046;-79
2023/05/14 21:18:03;;;;;;;6.45;3.10;;;;;;;22.09;55.17;99744.38;39899903;29;20047;-80
2023/05/14 21:38:03;;;;;;;3.30;3.00;;;;;;;22.06;55.62;99747.31;39642863;29;20051;-80
2023/05/14 21:58:05;;;;;;;3.40;2.83;;;;;;;22.03;55.22;99681.66;39637440;29;20066;-78
2023/05/14 22:18:06;;;;;;;4.07;2.72;;;;;;;21.99;55.50;99698.75;39642092;29;20498;-78
2023/05/14 22:38:07;;;;;;;3.55;2.75;;;;;;;22.00;55.06;99687.22;39796000;29;20332;-79
2023/05/14 22:58:07;;;;;;;3.30;3.00;;;;;;;21.97;55.38;99690.13;39803163;29;20048;-79
2023/05/14 23:18:08;;;;;;;2.78;2.50;;;;;;;21.94;55.34;99682.53;39806005;29;20051;-79
2023/05/14 23:38:08;;;;;;;2.88;2.47;;;;;;;21.93;55.37;99638.69;39742901;29;20321;-78
2023/05/14 23:58:09;;;;;;;2.92;2.25;;;;;;;21.89;55.44;99607.31;39808386;29;20046;-78
